Nyk Meteor — 3ENA9 — position and weather

sailwx.info

Track history (hours):
 
Tides and Currents Weather Stations Pressure Air Temp Water Temp Dewpoint Dewpoint Depression Visibility Wind Speed Wind Dir Waves Ship Positions

Nyk Meteor

Last reported at 2017-Dec-10 21:07 UTC. Time now 2017-Dec-11 17:29 UTC.
Position N 09°39' W 079°43'.

Length 294 m; draft 10.1 m.

Type: Cargo ship. MMSI: 354212000.

Date/timePositionNaut miles runAvg speedWind from/ knotsBaromVisibWave heightAir tempDewpointWater temp
2017-Dec-10 21:07N 09°39' W 079°43'418.1
2017-Dec-10 20:54N 09°37' W 079°46'718.1
2017-Dec-10 20:31N 09°31' W 079°51'815.5
2017-Dec-10 20:00N 09°25' W 079°55'5 9.4
2017-Dec-10 19:30N 09°20' W 079°55'3 6.3
2017-Dec-10 19:00N 09°17' W 079°55'0 0.7
2017-Dec-10 18:30N 09°16' W 079°55'0 0.5
2017-Dec-10 18:00N 09°16' W 079°55'0 0.7
2017-Dec-10 17:30N 09°16' W 079°55'2 4.7
2017-Dec-10 17:00N 09°13' W 079°55'710.8
2017-Dec-10 16:19N 09°10' W 079°49'70 2.3
2017-Dec-09 10:03N 08°05' W 079°22'114.0
2017-Dec-09 09:58N 08°04' W 079°22'815.4
2017-Dec-09 09:29N 07°56' W 079°22'714.6
2017-Dec-09 09:00N 07°49' W 079°23'  
2017-Dec-01 09:52N 32°08' W 117°39'719.9
2017-Dec-01 09:30N 32°15' W 117°41'1019.9
2017-Dec-01 09:00N 32°24' W 117°45'917.9
2017-Dec-01 08:30N 32°33' W 117°49'917.5
2017-Dec-01 08:00N 32°41' W 117°52'918.5
2017-Dec-01 07:30N 32°50' W 117°56'1020.2
2017-Dec-01 07:00N 32°60' W 117°59'1019.8
2017-Dec-01 06:30N 33°09' W 118°03'816.2
2017-Dec-01 06:01N 33°17' W 118°05'611.8
2017-Dec-01 05:30N 33°22' W 118°08'611.4
2017-Dec-01 05:00N 33°28' W 118°10'611.5
2017-Dec-01 04:31N 33°33' W 118°12'5 9.6
2017-Dec-01 04:00N 33°38' W 118°13'5 9.5
2017-Dec-01 03:30N 33°43' W 118°11'2 4.2
2017-Dec-01 03:00N 33°45' W 118°12'0 0.2
2017-Dec-01 01:58N 33°45' W 118°12'0 0.0
2017-Dec-01 01:10N 33°45' W 118°12'0 0.0
2017-Dec-01 00:58N 33°45' W 118°12'0 0.0
2017-Dec-01 00:28N 33°45' W 118°12'0 0.0
2017-Nov-30 23:58N 33°45' W 118°12'0 0.0
2017-Nov-30 23:28N 33°45' W 118°12'0 0.0
2017-Nov-30 22:58N 33°45' W 118°12'0 0.0
2017-Nov-30 22:28N 33°45' W 118°12'0 0.0
2017-Nov-30 21:58N 33°45' W 118°12'0 0.0
2017-Nov-30 21:28N 33°45' W 118°12'  
Track history (hours):
 
Tides and Currents Weather Stations Pressure Air Temp Water Temp Dewpoint Dewpoint Depression Visibility Wind Speed Wind Dir Waves Ship Positions

Nyk Meteor

Last reported at 2017-Dec-10 21:07 UTC. Time now 2017-Dec-11 17:29 UTC.
Position N 09°39' W 079°43'.

Length 294 m; draft 10.1 m.

Type: Cargo ship. MMSI: 354212000.

Date/timePositionNaut miles runAvg speedWind from/ knotsBaromVisibWave heightAir tempDewpointWater temp
2017-Dec-10 21:07N 09°39' W 079°43'418.1
2017-Dec-10 20:54N 09°37' W 079°46'718.1
2017-Dec-10 20:31N 09°31' W 079°51'815.5
2017-Dec-10 20:00N 09°25' W 079°55'5 9.4
2017-Dec-10 19:30N 09°20' W 079°55'3 6.3
2017-Dec-10 19:00N 09°17' W 079°55'0 0.7
2017-Dec-10 18:30N 09°16' W 079°55'0 0.5
2017-Dec-10 18:00N 09°16' W 079°55'0 0.7
2017-Dec-10 17:30N 09°16' W 079°55'2 4.7
2017-Dec-10 17:00N 09°13' W 079°55'710.8
2017-Dec-10 16:19N 09°10' W 079°49'70 2.3
2017-Dec-09 10:03N 08°05' W 079°22'114.0
2017-Dec-09 09:58N 08°04' W 079°22'815.4
2017-Dec-09 09:29N 07°56' W 079°22'714.6
2017-Dec-09 09:00N 07°49' W 079°23'  
2017-Dec-01 09:52N 32°08' W 117°39'719.9
2017-Dec-01 09:30N 32°15' W 117°41'1019.9
2017-Dec-01 09:00N 32°24' W 117°45'917.9
2017-Dec-01 08:30N 32°33' W 117°49'917.5
2017-Dec-01 08:00N 32°41' W 117°52'918.5
2017-Dec-01 07:30N 32°50' W 117°56'1020.2
2017-Dec-01 07:00N 32°60' W 117°59'1019.8
2017-Dec-01 06:30N 33°09' W 118°03'816.2
2017-Dec-01 06:01N 33°17' W 118°05'611.8
2017-Dec-01 05:30N 33°22' W 118°08'611.4
2017-Dec-01 05:00N 33°28' W 118°10'611.5
2017-Dec-01 04:31N 33°33' W 118°12'5 9.6
2017-Dec-01 04:00N 33°38' W 118°13'5 9.5
2017-Dec-01 03:30N 33°43' W 118°11'2 4.2
2017-Dec-01 03:00N 33°45' W 118°12'0 0.2
2017-Dec-01 01:58N 33°45' W 118°12'0 0.0
2017-Dec-01 01:10N 33°45' W 118°12'0 0.0
2017-Dec-01 00:58N 33°45' W 118°12'0 0.0
2017-Dec-01 00:28N 33°45' W 118°12'0 0.0
2017-Nov-30 23:58N 33°45' W 118°12'0 0.0
2017-Nov-30 23:28N 33°45' W 118°12'0 0.0
2017-Nov-30 22:58N 33°45' W 118°12'0 0.0
2017-Nov-30 22:28N 33°45' W 118°12'0 0.0
2017-Nov-30 21:58N 33°45' W 118°12'0 0.0
2017-Nov-30 21:28N 33°45' W 118°12'  

Dump ship's entire track history